Pyrites, New York
Current Conditions -  °F | °C
As of 4:53 PM on Saturday 25 Oct 2014 (Local Time) from KMSS Reporting Station
Overcast Overcast  
Wind Chill: 54°   Ceiling: 5000
Heat Index: 54°   Visibility: 7mi
Dew Point: 51°   Wind: 17mph
Humidity: 90%   Direction: 210°SSW
Pressure: 29.49"   Gusts: NA
Location:  44.51°N, 75.19°W
Report Text: KMSS 252053Z AUTO 21015KT 7SM FEW016 SCT030 OVC050 12/11 A2949 RMK AO2 RAE46 SLP989 P0004 60011 T01220106 58018
Loading
Personal Weather Stations






























Interactive Weather Map New forecast layout! Learn more

10-Day Weather Forecast

Advertisements
Track Severe Weather on mobile